Strona główna
METAR-TAF:

METAR-TAF

Lotnisko :

Philip Municipal Airport

Philip, Dakota Południowa, Stany Zjednoczone

Szerokość geograficzna: 44-03-04N, Długość geograficzna: 101-36-04W, wysokość: 673 m

Aktualna obserwacja pogody

Raport powstał 31 minut temu, godzina 12:55 UTC
Cisza
Temperatura 17°C
Wilgotność 82%
Ciśnienie 1015 hPa
Widzialność: 16.1 km
Przerywane chmury na wysokości 10000 ft

METAR: KPHP 031255Z AUTO 00000KT 10SM BKN100 17/14 A2997 RMK AO2 SLP130 T01670144

czas: 07:26 (13:26 UTC)


TAF: brakujący

Obserwacja i prognoza pogody dla ponad 4000 lotnisk (raport METAR i TAF).

Dostępne stacje oznaczono żółtymi i czerwonymi punktami na mapie.

Najedź kursorem aby zobaczyć nazwę stacji.

Kliknij aby zobaczyć obserwacje i prognozy pogody.

Aby zmienić mapę: kliknij na zielony przycisk z czarnym krzyżykiem, aby powiększyć; na zielony przycisk z myślnikiem, aby pomniejszyć; na zielone strzałki, aby przejść do map sąsiednich.


METAR-TAF: